Time;durP1;ratioP1;P1;durP2;ratioP2;P2;SDS_P1;SDS_P2;PMS_P1;PMS_P2;Temp;Humidity;BMP_temperature;BMP_pressure;BME280_temperature;BME280_humidity;BME280_pressure;Samples;Min_cycle;Max_cycle;Signal;HPM_P1;HPM_P2
2022/04/16 00:01:45;;;;;;;16.73;9.88;;;;;;;6.67;99.13;103226.28;5015724;28;20041;-70
2022/04/16 00:04:10;;;;;;;15.52;9.93;;;;;;;6.61;99.82;103228.31;5020724;28;20034;-71
2022/04/16 00:06:36;;;;;;;15.95;10.00;;;;;;;6.66;99.67;103242.94;5019973;28;20436;-71
2022/04/16 00:09:02;;;;;;;17.17;10.90;;;;;;;6.65;99.64;103240.41;5027545;28;20552;-71
2022/04/16 00:11:28;;;;;;;18.92;10.70;;;;;;;6.47;99.66;103221.91;5025945;28;20654;-72
2022/04/16 00:13:53;;;;;;;14.40;8.77;;;;;;;6.59;99.48;103242.34;5017642;28;20057;-72
2022/04/16 00:16:18;;;;;;;18.60;10.20;;;;;;;6.58;99.12;103245.91;5024234;28;20509;-72
2022/04/16 00:18:44;;;;;;;15.65;10.05;;;;;;;6.53;99.93;103242.63;5026533;28;20041;-72
2022/04/16 00:21:10;;;;;;;15.68;10.30;;;;;;;6.33;100.00;103219.00;5025647;28;20425;-72
2022/04/16 00:23:37;;;;;;;17.35;9.77;;;;;;;6.41;100.00;103235.25;5027471;28;20029;-71
2022/04/16 00:26:02;;;;;;;20.33;10.52;;;;;;;6.45;100.00;103244.72;5028244;28;20036;-72
2022/04/16 00:28:28;;;;;;;16.80;10.27;;;;;;;6.39;100.00;103242.34;5029292;28;20021;-72
2022/04/16 00:30:56;;;;;;;18.58;10.68;;;;;;;6.38;100.00;103235.41;5025900;28;20156;-72
2022/04/16 00:33:22;;;;;;;18.35;9.63;;;;;;;6.37;100.00;103231.06;5028075;28;20036;-71
2022/04/16 00:35:48;;;;;;;17.13;9.90;;;;;;;6.47;100.00;103234.16;5026011;28;20489;-71
2022/04/16 00:38:14;;;;;;;16.98;11.23;;;;;;;6.51;100.00;103239.22;5026397;28;20037;-71
2022/04/16 00:40:40;;;;;;;18.40;10.38;;;;;;;6.56;100.00;103250.34;5027653;28;20095;-71
2022/04/16 00:43:06;;;;;;;20.73;10.93;;;;;;;6.59;100.00;103247.59;5027498;28;20116;-71
2022/04/16 00:45:32;;;;;;;18.35;11.68;;;;;;;6.64;100.00;103244.81;5029244;28;20475;-71
2022/04/16 00:47:59;;;;;;;16.38;11.25;;;;;;;6.74;100.00;103247.88;5003758;28;20029;-71
2022/04/16 00:50:25;;;;;;;15.68;11.00;;;;;;;6.77;100.00;103245.09;5024033;28;20045;-71
2022/04/16 00:52:51;;;;;;;22.98;12.18;;;;;;;6.78;100.00;103252.06;5028126;28;20029;-71
2022/04/16 00:55:17;;;;;;;18.83;10.77;;;;;;;6.81;100.00;103251.94;5025030;28;20041;-71
2022/04/16 00:57:42;;;;;;;17.38;11.30;;;;;;;6.73;100.00;103261.94;5031867;28;20022;-71
2022/04/16 01:00:13;;;;;;;21.40;11.82;;;;;;;6.79;100.00;103259.88;5027461;28;20091;-72
2022/04/16 01:02:40;;;;;;;19.45;12.32;;;;;;;6.83;100.00;103260.59;5011920;28;20410;-72
2022/04/16 01:05:07;;;;;;;22.23;13.10;;;;;;;6.87;100.00;103266.56;5029172;28;20022;-72
2022/04/16 01:07:33;;;;;;;17.55;11.55;;;;;;;6.88;100.00;103260.38;5020725;28;20061;-72
2022/04/16 01:09:59;;;;;;;19.67;12.60;;;;;;;6.85;100.00;103264.00;5031136;28;20060;-72
2022/04/16 01:12:24;;;;;;;21.90;12.35;;;;;;;6.81;100.00;103257.19;5028039;28;20036;-72
2022/04/16 01:14:50;;;;;;;20.77;11.32;;;;;;;6.79;100.00;103265.13;5019359;28;20054;-72
2022/04/16 01:17:16;;;;;;;18.63;10.77;;;;;;;6.79;100.00;103264.25;5018951;28;20036;-72
2022/04/16 01:19:42;;;;;;;17.48;11.45;;;;;;;6.70;100.00;103264.66;5026320;28;20474;-72
2022/04/16 01:22:12;;;;;;;20.77;11.05;;;;;;;6.73;100.00;103272.44;5031601;28;20037;-71
2022/04/16 01:24:48;;;;;;;18.20;11.25;;;;;;;6.68;100.00;103266.50;5029415;28;20469;-72
2022/04/16 01:27:14;;;;;;;18.58;11.95;;;;;;;6.64;100.00;103265.78;5032088;28;20029;-72
2022/04/16 01:29:41;;;;;;;19.70;11.68;;;;;;;6.64;100.00;103270.16;5032823;28;20456;-72
2022/04/16 01:32:09;;;;;;;25.85;12.32;;;;;;;6.62;100.00;103269.38;5030381;28;20090;-72
2022/04/16 01:34:35;;;;;;;18.95;11.95;;;;;;;6.59;100.00;103265.13;5027354;28;20112;-72
2022/04/16 01:37:02;;;;;;;23.80;13.02;;;;;;;6.56;100.00;103267.88;5027131;28;20033;-71
2022/04/16 01:39:30;;;;;;;23.65;12.65;;;;;;;6.54;100.00;103281.06;5028628;28;20428;-71
2022/04/16 01:41:57;;;;;;;24.73;13.25;;;;;;;6.39;100.00;103256.31;5026159;28;20504;-71
2022/04/16 01:44:23;;;;;;;23.65;12.85;;;;;;;6.53;100.00;103271.50;5013848;28;20513;-72
2022/04/16 01:46:48;;;;;;;24.98;13.90;;;;;;;6.54;100.00;103275.81;5030057;28;20025;-72
2022/04/16 01:49:14;;;;;;;24.42;14.23;;;;;;;6.63;100.00;103282.44;5028893;28;20033;-72
2022/04/16 01:51:39;;;;;;;23.77;14.45;;;;;;;6.56;100.00;103279.22;5027348;28;20084;-72
2022/04/16 01:54:04;;;;;;;26.45;13.63;;;;;;;6.65;100.00;103290.25;5023563;28;20037;-72
2022/04/16 01:56:30;;;;;;;26.45;14.32;;;;;;;6.67;100.00;103301.53;5016977;28;20038;-71
2022/04/16 01:58:55;;;;;;;30.50;15.73;;;;;;;6.71;100.00;103300.50;5029982;28;20108;-72
2022/04/16 02:01:22;;;;;;;27.30;14.77;;;;;;;6.73;100.00;103290.78;5014869;28;20021;-72
2022/04/16 02:03:48;;;;;;;25.13;15.25;;;;;;;6.80;100.00;103303.56;5029952;28;20025;-72
2022/04/16 02:06:14;;;;;;;26.83;15.27;;;;;;;6.76;100.00;103295.91;5026908;28;20037;-72
2022/04/16 02:08:39;;;;;;;25.15;15.15;;;;;;;6.76;100.00;103295.91;5027934;28;20477;-71
2022/04/16 02:11:04;;;;;;;22.42;14.93;;;;;;;6.91;100.00;103311.00;5028353;28;20155;-71
2022/04/16 02:13:30;;;;;;;27.77;16.02;;;;;;;6.92;100.00;103307.44;5028025;28;20021;-71
2022/04/16 02:15:56;;;;;;;26.48;15.18;;;;;;;7.06;100.00;103313.91;5030114;28;20037;-72
2022/04/16 02:18:23;;;;;;;24.35;16.27;;;;;;;7.08;100.00;103312.06;5014150;28;20061;-72
2022/04/16 02:20:49;;;;;;;29.02;17.33;;;;;;;7.10;100.00;103316.31;4997900;28;20072;-71
2022/04/16 02:23:15;;;;;;;28.98;16.40;;;;;;;6.99;100.00;103319.41;5026086;28;20445;-72
2022/04/16 02:25:43;;;;;;;27.05;17.08;;;;;;;6.94;100.00;103316.09;5030750;28;20022;-72
2022/04/16 02:28:09;;;;;;;29.80;16.35;;;;;;;6.79;100.00;103301.88;5010717;28;20116;-71
2022/04/16 02:30:34;;;;;;;30.20;15.77;;;;;;;6.88;100.00;103318.13;5006162;28;20168;-71
2022/04/16 02:33:00;;;;;;;23.90;14.05;;;;;;;6.77;100.00;103302.84;5030887;28;20018;-71
2022/04/16 02:35:25;;;;;;;23.50;14.23;;;;;;;6.93;100.00;103324.91;5029054;28;20125;-71
2022/04/16 02:37:51;;;;;;;21.55;13.88;;;;;;;6.98;100.00;103328.19;5026525;28;20088;-71
2022/04/16 02:40:17;;;;;;;24.02;14.05;;;;;;;6.97;100.00;103317.78;5029075;28;20037;-72
2022/04/16 02:42:44;;;;;;;21.27;13.85;;;;;;;7.10;100.00;103321.56;5026608;28;20404;-71
2022/04/16 02:47:58;;;;;;;25.30;14.88;;;;;;;7.14;100.00;103327.53;5027373;28;20032;-71
2022/04/16 02:50:25;;;;;;;20.52;13.13;;;;;;;7.17;100.00;103332.66;5027787;28;20043;-71
2022/04/16 02:52:55;;;;;;;22.67;13.43;;;;;;;7.11;100.00;103327.66;5029031;28;20087;-71
2022/04/16 02:55:21;;;;;;;23.33;14.70;;;;;;;6.95;100.00;103307.31;5026481;28;20033;-71
2022/04/16 02:57:49;;;;;;;23.90;14.20;;;;;;;7.04;100.00;103331.50;5013404;28;20030;-71
2022/04/16 03:00:15;;;;;;;22.70;14.45;;;;;;;6.98;100.00;103332.59;5010865;28;20109;-71
2022/04/16 03:02:41;;;;;;;28.67;15.43;;;;;;;6.83;100.00;103333.25;5025640;28;20041;-72
2022/04/16 03:05:08;;;;;;;25.33;15.27;;;;;;;6.70;100.00;103323.25;5025223;28;20032;-72
2022/04/16 03:07:37;;;;;;;29.92;15.27;;;;;;;6.62;100.00;103337.59;5027832;28;20124;-72
2022/04/16 03:10:04;;;;;;;24.58;13.45;;;;;;;6.53;100.00;103320.47;5030136;28;20029;-71
2022/04/16 03:12:51;;;;;;;27.88;15.45;;;;;;;6.55;100.00;103334.38;5030180;28;20037;-71
2022/04/16 03:18:17;;;;;;;23.88;12.95;;;;;;;6.40;100.00;103346.34;5008192;28;20049;-71
2022/04/16 03:20:44;;;;;;;26.73;13.77;;;;;;;6.27;100.00;103324.13;4992158;28;20053;-71
2022/04/16 03:23:09;;;;;;;18.95;10.48;;;;;;;6.24;100.00;103340.00;4975600;28;20770;-71
2022/04/16 03:25:38;;;;;;;19.23;11.77;;;;;;;6.18;100.00;103336.72;4992509;28;20022;-71
2022/04/16 03:28:04;;;;;;;22.17;13.05;;;;;;;6.33;100.00;103365.88;5008744;28;20036;-71
2022/04/16 03:30:29;;;;;;;27.58;15.00;;;;;;;6.37;100.00;103370.09;5009034;28;20050;-71
2022/04/16 03:32:55;;;;;;;34.00;20.25;;;;;;;6.23;100.00;103375.88;4991477;28;20446;-71
2022/04/16 03:35:22;;;;;;;34.95;17.98;;;;;;;6.18;100.00;103373.44;5008513;28;20098;-71
2022/04/16 03:37:48;;;;;;;33.35;20.25;;;;;;;6.26;100.00;103381.00;5004429;28;20041;-71
2022/04/16 03:40:13;;;;;;;35.92;19.02;;;;;;;6.07;100.00;103365.09;5009502;28;20073;-71
2022/04/16 03:42:50;;;;;;;35.92;18.50;;;;;;;6.13;100.00;103379.75;4988968;28;20066;-72
2022/04/16 03:45:20;;;;;;;31.27;18.75;;;;;;;6.14;100.00;103384.94;5004661;28;20060;-71
2022/04/16 03:47:46;;;;;;;30.55;15.27;;;;;;;6.15;100.00;103383.19;5006752;28;20132;-71
2022/04/16 03:50:12;;;;;;;37.05;19.50;;;;;;;6.17;100.00;103397.09;5007764;28;20029;-71
2022/04/16 03:52:41;;;;;;;33.83;18.15;;;;;;;6.14;100.00;103387.56;5006689;28;20065;-71
2022/04/16 04:00:44;;;;;;;30.40;18.55;;;;;;;6.09;100.00;103399.13;5022661;28;20118;-71
2022/04/16 04:03:13;;;;;;;31.80;16.90;;;;;;;5.95;100.00;103399.66;5028803;28;20159;-71
2022/04/16 04:05:39;;;;;;;32.88;17.80;;;;;;;5.83;100.00;103393.06;5025877;28;20375;-71
2022/04/16 04:08:05;;;;;;;27.55;17.30;;;;;;;5.94;100.00;103405.78;5022044;28;20032;-72
2022/04/16 04:10:31;;;;;;;31.25;18.60;;;;;;;5.73;100.00;103381.22;5026620;28;20745;-71
2022/04/16 04:12:56;;;;;;;33.83;16.45;;;;;;;5.83;100.00;103405.31;4995899;28;20056;-71
2022/04/16 04:15:23;;;;;;;29.77;17.35;;;;;;;5.72;100.00;103401.31;5025297;28;20132;-71
2022/04/16 04:17:49;;;;;;;26.45;16.27;;;;;;;5.77;100.00;103404.66;5022142;28;20037;-71
2022/04/16 04:20:14;;;;;;;34.00;18.00;;;;;;;5.78;100.00;103410.72;5028669;28;20025;-71
2022/04/16 04:22:40;;;;;;;29.58;17.33;;;;;;;5.77;100.00;103422.13;5025917;28;20856;-71
2022/04/16 04:25:05;;;;;;;27.92;15.73;;;;;;;5.48;100.00;103362.91;5014127;28;20121;-71
2022/04/16 04:27:31;;;;;;;31.80;17.35;;;;;;;5.83;100.00;103418.44;5026851;28;20096;-71
2022/04/16 04:29:56;;;;;;;35.05;18.98;;;;;;;5.73;100.00;103408.28;5027467;28;20030;-71
2022/04/16 04:32:22;;;;;;;29.83;16.05;;;;;;;5.83;100.00;103419.28;5025218;28;20734;-72
2022/04/16 04:34:47;;;;;;;30.92;17.20;;;;;;;5.83;100.00;103421.03;5029090;28;20029;-71
2022/04/16 04:37:13;;;;;;;28.10;17.05;;;;;;;5.90;100.00;103425.16;5024624;28;20037;-72
2022/04/16 04:39:38;;;;;;;25.45;14.90;;;;;;;5.88;100.00;103427.84;5030362;28;20088;-72
2022/04/16 04:42:04;;;;;;;25.05;14.45;;;;;;;5.85;100.00;103414.84;5033884;28;20104;-71
2022/04/16 04:44:29;;;;;;;29.08;16.15;;;;;;;5.96;100.00;103435.44;5032196;28;20025;-71
2022/04/16 04:46:55;;;;;;;27.30;15.55;;;;;;;5.96;100.00;103435.44;5016146;28;20041;-72
2022/04/16 04:49:20;;;;;;;25.30;12.93;;;;;;;5.91;100.00;103442.59;5028341;28;20056;-71
2022/04/16 04:51:46;;;;;;;23.65;14.25;;;;;;;5.96;100.00;103440.69;5031129;28;20618;-71
2022/04/16 04:54:11;;;;;;;26.02;15.05;;;;;;;5.99;100.00;103448.44;5032402;28;20067;-72
2022/04/16 04:56:36;;;;;;;21.88;13.35;;;;;;;6.00;100.00;103444.91;5033237;28;20033;-71
2022/04/16 04:59:03;;;;;;;25.20;14.65;;;;;;;5.96;100.00;103438.06;5031135;28;20033;-71
2022/04/16 05:01:29;;;;;;;24.33;14.60;;;;;;;6.00;100.00;103449.31;5029897;28;20040;-71
2022/04/16 05:03:54;;;;;;;25.38;14.65;;;;;;;5.93;100.00;103446.03;5032336;28;20029;-71
2022/04/16 05:06:19;;;;;;;23.83;13.18;;;;;;;5.97;100.00;103447.66;5016752;28;20197;-71
2022/04/16 05:08:45;;;;;;;29.50;14.60;;;;;;;5.95;100.00;103450.31;5019050;28;20076;-71
2022/04/16 05:11:11;;;;;;;25.38;14.30;;;;;;;5.92;100.00;103454.78;5032981;28;20029;-71
2022/04/16 05:13:36;;;;;;;22.27;12.95;;;;;;;5.94;100.00;103459.13;5019532;28;20029;-71
2022/04/16 05:16:02;;;;;;;22.60;13.73;;;;;;;5.97;100.00;103463.38;5033721;28;20025;-71
2022/04/16 05:18:27;;;;;;;27.63;12.95;;;;;;;6.01;100.00;103464.09;5025920;28;20036;-71
2022/04/16 05:20:52;;;;;;;27.27;13.10;;;;;;;6.02;100.00;103466.69;5032183;28;20232;-71
2022/04/16 05:23:18;;;;;;;19.55;12.85;;;;;;;6.04;100.00;103471.88;5030873;28;20038;-71
2022/04/16 05:25:43;;;;;;;19.70;11.63;;;;;;;6.04;100.00;103475.34;5030417;28;20034;-71
2022/04/16 05:28:09;;;;;;;23.88;13.05;;;;;;;6.13;100.00;103480.25;5021865;28;20473;-71
2022/04/16 05:30:44;;;;;;;19.05;11.40;;;;;;;6.18;100.00;103477.44;5010641;28;20061;-71
2022/04/16 05:34:18;;;;;;;21.23;11.60;;;;;;;6.21;100.00;103473.88;5028113;28;20504;-72
2022/04/16 05:35:59;;;;;;;17.05;10.80;;;;;;;6.20;100.00;103483.50;5027230;28;20580;-71
2022/04/16 05:38:24;;;;;;;17.33;10.95;;;;;;;6.07;100.00;103484.88;5023021;28;20044;-71
2022/04/16 05:40:49;;;;;;;20.45;10.93;;;;;;;5.96;100.00;103464.28;5027416;28;20124;-71
2022/04/16 05:43:15;;;;;;;19.92;10.68;;;;;;;6.04;100.00;103479.75;5023868;28;20040;-72
2022/04/16 05:45:40;;;;;;;18.90;10.95;;;;;;;5.91;100.00;103466.19;5025862;28;20063;-72
2022/04/16 05:48:06;;;;;;;24.15;11.52;;;;;;;6.03;100.00;103483.25;5023451;28;20024;-71
2022/04/16 05:50:31;;;;;;;22.65;11.63;;;;;;;6.08;100.00;103486.59;5026482;28;20037;-71
2022/04/16 05:52:57;;;;;;;24.25;12.20;;;;;;;6.04;100.00;103480.59;5018797;28;20033;-71
2022/04/16 05:55:23;;;;;;;18.52;10.80;;;;;;;5.98;100.00;103488.66;5026762;28;20029;-71
2022/04/16 05:57:48;;;;;;;18.83;11.25;;;;;;;6.02;100.00;103484.19;5028527;28;20539;-71
2022/04/16 06:00:14;;;;;;;20.88;10.40;;;;;;;6.06;100.00;103488.41;5026812;28;20071;-72
2022/04/16 06:02:41;;;;;;;20.60;10.90;;;;;;;6.10;100.00;103485.63;5025885;28;21376;-71
2022/04/16 06:05:07;;;;;;;16.95;10.18;;;;;;;5.93;99.55;103461.75;5024868;28;20389;-71
2022/04/16 06:07:32;;;;;;;22.90;10.57;;;;;;;6.17;99.97;103487.09;5008885;28;20030;-71
2022/04/16 06:09:58;;;;;;;20.48;10.55;;;;;;;6.15;98.86;103486.28;5026805;28;20022;-71
2022/04/16 06:12:26;;;;;;;21.13;9.93;;;;;;;6.15;98.47;103493.31;5026680;28;20128;-71
2022/04/16 06:14:52;;;;;;;20.42;9.77;;;;;;;6.23;98.35;103490.38;5027382;28;20041;-71
2022/04/16 06:17:18;;;;;;;18.67;9.57;;;;;;;6.08;96.70;103497.94;5026434;28;20195;-71
2022/04/16 06:19:43;;;;;;;12.98;8.50;;;;;;;6.14;95.56;103489.84;5012056;28;20103;-71
2022/04/16 06:22:11;;;;;;;16.52;9.13;;;;;;;6.20;95.12;103485.28;5026644;28;20033;-71
2022/04/16 06:24:40;;;;;;;14.60;7.68;;;;;;;6.25;94.41;103485.94;5023855;28;20029;-71
2022/04/16 06:27:06;;;;;;;16.55;8.95;;;;;;;6.32;93.88;103490.06;5022693;28;20535;-71
2022/04/16 06:29:31;;;;;;;14.32;8.27;;;;;;;6.24;93.50;103479.00;5022271;28;20450;-71
2022/04/16 06:31:56;;;;;;;14.52;7.30;;;;;;;6.15;92.72;103488.91;5024313;28;20091;-71
2022/04/16 06:34:23;;;;;;;15.13;7.03;;;;;;;6.29;92.42;103479.66;5019667;28;20033;-71
2022/04/16 06:36:49;;;;;;;15.43;7.07;;;;;;;6.38;91.20;103485.44;5021948;28;20061;-72
2022/04/16 06:39:15;;;;;;;13.63;6.97;;;;;;;6.50;91.03;103497.22;5015837;28;20038;-70
2022/04/16 06:41:40;;;;;;;14.30;7.68;;;;;;;6.67;90.27;103495.75;5024852;28;20032;-68
2022/04/16 06:44:06;;;;;;;11.02;6.70;;;;;;;6.74;89.10;103507.69;5022423;28;20045;-68
2022/04/16 06:46:32;;;;;;;10.68;6.38;;;;;;;6.54;87.82;103514.56;5004399;28;20030;-68
2022/04/16 06:48:58;;;;;;;10.77;6.28;;;;;;;6.55;88.09;103500.56;5020767;28;20425;-69
2022/04/16 06:51:23;;;;;;;10.93;5.78;;;;;;;6.77;87.60;103507.56;5020855;28;20091;-69
2022/04/16 06:53:49;;;;;;;14.63;6.20;;;;;;;6.67;86.96;103475.59;5021117;28;20045;-69
2022/04/16 06:56:14;;;;;;;14.05;6.60;;;;;;;6.91;86.14;103510.53;5022664;28;20437;-68
2022/04/16 06:58:40;;;;;;;7.43;4.30;;;;;;;6.90;84.90;103519.34;5022522;28;20033;-68
2022/04/16 07:01:05;;;;;;;10.90;5.22;;;;;;;6.84;83.86;103522.19;5020573;28;20043;-69
2022/04/16 07:03:30;;;;;;;12.13;5.90;;;;;;;7.07;82.88;103525.66;5022224;28;20501;-69
2022/04/16 07:05:56;;;;;;;9.98;5.93;;;;;;;7.46;81.25;103509.19;5022608;28;20359;-69
2022/04/16 07:08:21;;;;;;;9.43;4.93;;;;;;;7.97;79.70;103531.53;5007658;28;20047;-69
2022/04/16 07:10:46;;;;;;;10.13;5.65;;;;;;;7.91;78.44;103513.41;5022772;28;20128;-71
2022/04/16 07:13:12;;;;;;;10.50;5.50;;;;;;;8.02;77.05;103537.47;5003480;28;20575;-71
2022/04/16 07:15:38;;;;;;;10.45;4.90;;;;;;;8.27;75.84;103520.56;5022811;28;20049;-70
2022/04/16 07:18:04;;;;;;;8.43;5.13;;;;;;;8.36;74.88;103536.81;5025611;28;20091;-70
2022/04/16 07:20:29;;;;;;;7.60;4.20;;;;;;;8.13;73.25;103539.63;5023391;28;20120;-70
2022/04/16 07:22:55;;;;;;;6.72;4.55;;;;;;;8.48;72.01;103545.94;5022182;28;20120;-69
2022/04/16 07:25:21;;;;;;;7.75;4.65;;;;;;;8.44;72.75;103547.00;5024960;28;20022;-69
2022/04/16 07:27:47;;;;;;;5.93;3.95;;;;;;;8.49;70.25;103550.28;5024316;28;20042;-71
2022/04/16 07:30:13;;;;;;;8.90;4.22;;;;;;;8.30;71.25;103559.91;5025021;28;20393;-71
2022/04/16 07:32:39;;;;;;;7.80;3.90;;;;;;;8.93;70.39;103562.28;5023649;28;20362;-70
2022/04/16 07:35:06;;;;;;;5.72;3.65;;;;;;;8.98;69.44;103542.72;5023289;28;20095;-70
2022/04/16 07:37:32;;;;;;;6.28;3.20;;;;;;;9.31;68.10;103541.16;5025051;28;20087;-70
2022/04/16 07:39:57;;;;;;;7.22;3.92;;;;;;;9.50;66.71;103549.03;5029090;28;20025;-70
2022/04/16 07:42:30;;;;;;;5.38;3.28;;;;;;;9.41;66.43;103545.06;5021878;28;20034;-70
2022/04/16 07:44:55;;;;;;;6.35;3.55;;;;;;;9.78;66.44;103551.13;5025874;28;20049;-70
2022/04/16 07:47:21;;;;;;;6.93;3.55;;;;;;;9.64;65.03;103555.28;5024767;28;20061;-70
2022/04/16 07:49:46;;;;;;;7.20;3.63;;;;;;;9.92;64.51;103538.06;5026405;28;20109;-71
2022/04/16 07:52:11;;;;;;;5.10;3.25;;;;;;;9.71;64.39;103554.97;5019278;28;20362;-71
2022/04/16 07:54:37;;;;;;;7.72;3.13;;;;;;;10.21;64.51;103549.72;5024458;28;20028;-71
2022/04/16 07:57:05;;;;;;;7.18;3.30;;;;;;;10.31;62.80;103546.63;5021696;28;20507;-71
2022/04/16 07:59:30;;;;;;;5.70;2.88;;;;;;;10.29;63.05;103555.47;5023739;28;20055;-69
2022/04/16 08:01:56;;;;;;;5.43;2.88;;;;;;;10.15;61.97;103547.41;5022892;28;20041;-71
2022/04/16 08:04:21;;;;;;;5.05;2.65;;;;;;;10.03;63.10;103548.91;5006776;28;20036;-71
2022/04/16 08:06:47;;;;;;;4.45;2.88;;;;;;;9.99;62.89;103549.13;5025846;28;20026;-71
2022/04/16 08:09:12;;;;;;;5.63;2.80;;;;;;;9.80;61.98;103563.28;5024040;28;20045;-71
2022/04/16 08:11:37;;;;;;;5.40;2.83;;;;;;;9.95;62.49;103563.41;5025397;28;20056;-69
2022/04/16 08:14:04;;;;;;;4.88;2.60;;;;;;;10.34;61.77;103555.22;5021889;28;20096;-69
2022/04/16 08:16:30;;;;;;;3.50;2.10;;;;;;;10.75;61.99;103543.34;5006331;28;20167;-71
2022/04/16 08:18:57;;;;;;;4.85;3.20;;;;;;;10.73;60.04;103564.56;5020055;28;20507;-71
2022/04/16 08:21:22;;;;;;;6.35;2.70;;;;;;;10.78;60.46;103549.31;5022713;28;20029;-71
2022/04/16 08:23:56;;;;;;;4.63;2.83;;;;;;;10.99;60.44;103557.81;5025141;28;20025;-71
2022/04/16 08:26:23;;;;;;;3.30;2.45;;;;;;;10.59;59.15;103554.75;5025670;28;20056;-71
2022/04/16 08:28:49;;;;;;;4.15;2.75;;;;;;;10.88;59.95;103566.34;5026368;28;20026;-69
2022/04/16 08:31:14;;;;;;;3.60;1.95;;;;;;;11.33;58.22;103550.63;5018131;28;20034;-71
2022/04/16 08:33:39;;;;;;;5.65;2.53;;;;;;;11.86;58.19;103554.53;5024416;28;20033;-71
2022/04/16 08:36:05;;;;;;;4.85;2.28;;;;;;;12.43;54.89;103552.88;5025127;28;20120;-71
2022/04/16 08:38:30;;;;;;;6.30;2.65;;;;;;;11.19;56.41;103553.19;5025273;28;20630;-71
2022/04/16 08:40:56;;;;;;;3.67;2.25;;;;;;;10.57;57.35;103550.50;5020490;28;20450;-71
2022/04/16 08:43:22;;;;;;;3.75;2.70;;;;;;;10.86;57.13;103541.81;5021846;28;20030;-71
2022/04/16 08:45:50;;;;;;;4.82;2.83;;;;;;;11.07;57.58;103549.47;5024909;28;20025;-71
2022/04/16 08:48:15;;;;;;;5.78;3.35;;;;;;;11.66;56.30;103557.53;5024179;28;20037;-71
2022/04/16 08:50:42;;;;;;;5.05;3.08;;;;;;;11.50;56.57;103541.72;5024075;28;20029;-71
2022/04/16 08:53:08;;;;;;;5.15;3.20;;;;;;;12.59;56.02;103536.91;5024677;28;20037;-71
2022/04/16 08:55:33;;;;;;;6.97;2.50;;;;;;;12.75;54.13;103553.50;5019568;28;20501;-71
2022/04/16 08:57:59;;;;;;;3.15;2.00;;;;;;;12.76;52.37;103556.06;5026734;28;20099;-71
2022/04/16 09:00:24;;;;;;;3.95;2.20;;;;;;;12.05;54.24;103554.31;5024651;28;20037;-71
2022/04/16 09:02:57;;;;;;;3.58;2.05;;;;;;;12.01;55.02;103546.66;5023507;28;20052;-71
2022/04/16 09:05:24;;;;;;;3.40;2.20;;;;;;;11.63;53.75;103552.44;5026363;28;20477;-71
2022/04/16 09:07:58;;;;;;;4.32;2.40;;;;;;;11.32;55.10;103552.44;5020342;28;20025;-71
2022/04/16 09:10:28;;;;;;;3.70;2.10;;;;;;;12.22;53.29;103542.69;5021925;28;20053;-70
2022/04/16 09:12:56;;;;;;;4.85;2.10;;;;;;;11.98;54.05;103547.69;5008585;28;20427;-70
2022/04/16 09:15:23;;;;;;;3.80;2.33;;;;;;;12.56;53.75;103532.63;5009207;28;20433;-70
2022/04/16 09:18:06;;;;;;;4.57;2.28;;;;;;;12.14;53.35;103539.66;5023265;28;20029;-70
2022/04/16 09:20:39;;;;;;;2.83;2.08;;;;;;;12.93;52.56;103541.75;5028064;28;20029;-70
2022/04/16 09:23:15;;;;;;;2.22;2.00;;;;;;;12.25;51.47;103541.66;5026794;28;20482;-72
2022/04/16 09:25:42;;;;;;;4.47;1.95;;;;;;;12.03;52.07;103534.19;5027493;28;20021;-71
2022/04/16 09:28:08;;;;;;;2.90;2.10;;;;;;;11.82;53.13;103529.19;5019916;28;20033;-72
2022/04/16 09:30:34;;;;;;;3.30;2.22;;;;;;;12.16;53.82;103540.41;5003056;28;20061;-71
2022/04/16 09:33:00;;;;;;;4.40;2.40;;;;;;;12.38;52.58;103537.28;5013856;28;20030;-71
2022/04/16 09:35:28;;;;;;;3.58;2.33;;;;;;;12.38;48.57;103539.09;5026804;28;20032;-71
2022/04/16 09:37:57;;;;;;;5.15;2.20;;;;;;;12.82;47.84;103543.38;5025789;28;20503;-71
2022/04/16 09:40:30;;;;;;;3.83;2.25;;;;;;;12.71;48.57;103536.09;5025855;28;20052;-71
2022/04/16 09:43:03;;;;;;;4.60;1.95;;;;;;;12.81;50.50;103541.69;5024325;28;20029;-71
2022/04/16 09:45:29;;;;;;;4.30;2.17;;;;;;;13.32;49.16;103544.53;5026717;28;20025;-71
2022/04/16 09:47:55;;;;;;;3.58;2.40;;;;;;;13.23;49.36;103538.00;5027719;28;20079;-71
2022/04/16 09:50:32;;;;;;;4.63;2.20;;;;;;;13.75;48.40;103541.63;5025338;28;20029;-71
2022/04/16 09:53:02;;;;;;;3.40;2.05;;;;;;;14.44;46.84;103536.81;5026499;28;20029;-70
2022/04/16 09:55:29;;;;;;;3.00;1.88;;;;;;;13.47;47.27;103532.06;5025066;28;20109;-70
2022/04/16 09:58:01;;;;;;;4.13;2.10;;;;;;;13.76;47.00;103538.03;5023966;28;20033;-70
2022/04/16 10:00:28;;;;;;;4.20;2.08;;;;;;;13.66;47.47;103550.25;5031381;28;20040;-72
2022/04/16 10:02:54;;;;;;;4.57;1.83;;;;;;;12.90;45.92;103528.66;5025752;28;20511;-71
2022/04/16 10:05:23;;;;;;;4.43;2.13;;;;;;;12.58;49.07;103541.31;5027607;28;20080;-71
2022/04/16 10:07:49;;;;;;;4.50;3.00;;;;;;;12.90;48.25;103533.97;5017557;28;20033;-71
2022/04/16 10:10:18;;;;;;;4.25;2.70;;;;;;;13.10;49.25;103534.47;5021434;28;20043;-70
2022/04/16 10:13:05;;;;;;;4.68;3.00;;;;;;;13.08;45.95;103536.38;5028102;28;20068;-70
2022/04/16 10:16:02;;;;;;;6.18;3.03;;;;;;;14.14;47.29;103535.38;5028611;28;20453;-70
2022/04/16 10:18:28;;;;;;;4.65;2.92;;;;;;;14.35;45.38;103533.00;5028532;28;20112;-70
2022/04/16 10:20:59;;;;;;;4.95;2.90;;;;;;;13.59;45.82;103539.19;5027483;28;20497;-70
2022/04/16 10:23:32;;;;;;;5.10;2.78;;;;;;;13.58;47.14;103532.16;5025551;28;20035;-70
2022/04/16 10:26:09;;;;;;;5.00;2.30;;;;;;;13.97;47.55;103533.03;5025878;28;20473;-70
2022/04/16 10:28:38;;;;;;;5.10;2.30;;;;;;;14.10;46.43;103515.28;5025478;28;20033;-70
2022/04/16 10:31:05;;;;;;;3.55;2.38;;;;;;;13.62;45.66;103511.59;5022585;28;20032;-70
2022/04/16 10:33:31;;;;;;;2.95;1.70;;;;;;;13.56;45.02;103526.13;5021169;28;20466;-70
2022/04/16 10:36:09;;;;;;;4.25;2.20;;;;;;;13.75;45.80;103529.22;5024085;28;20494;-70
2022/04/16 10:38:40;;;;;;;4.13;2.17;;;;;;;13.83;46.35;103531.34;5016748;28;20076;-70
2022/04/16 10:41:09;;;;;;;;;;;;;;;13.10;46.04;103530.00;5026460;28;20032;-70
2022/04/16 10:43:34;;;;;;;3.83;2.22;;;;;;;13.56;44.93;103524.31;5024338;28;19935;-71
2022/04/16 10:46:01;;;;;;;2.75;2.00;;;;;;;12.88;45.58;103517.31;5028433;28;20481;-71
2022/04/16 10:48:29;;;;;;;4.53;2.35;;;;;;;13.05;46.34;103544.53;5016664;28;20025;-71
2022/04/16 10:50:58;;;;;;;5.57;2.75;;;;;;;13.54;45.47;103523.59;5028028;28;20554;-71
2022/04/16 10:53:32;;;;;;;5.68;2.85;;;;;;;13.54;45.93;103542.16;5026278;28;20116;-71
2022/04/16 10:56:13;;;;;;;6.63;3.30;;;;;;;14.06;45.67;103521.78;5029718;28;20048;-70
2022/04/16 10:58:45;;;;;;;6.97;3.83;;;;;;;15.25;43.21;103543.34;5027877;28;20108;-70
2022/04/16 11:01:23;;;;;;;5.38;3.33;;;;;;;15.79;41.86;103539.28;5024208;28;20508;-70
2022/04/16 11:03:49;;;;;;;3.47;2.38;;;;;;;14.38;41.10;103543.41;5025756;28;20068;-71
2022/04/16 11:06:18;;;;;;;6.53;2.85;;;;;;;13.79;41.57;103524.56;5021362;28;20368;-71
2022/04/16 11:08:47;;;;;;;4.53;2.50;;;;;;;14.10;42.26;103528.56;5007217;28;20597;-70
2022/04/16 11:11:16;;;;;;;3.25;2.10;;;;;;;14.12;41.29;103531.13;5020181;28;20037;-70
2022/04/16 11:13:42;;;;;;;3.88;2.05;;;;;;;14.14;42.67;103521.25;5020476;28;20055;-70
2022/04/16 11:16:09;;;;;;;5.22;2.45;;;;;;;13.81;43.31;103511.19;5024550;28;20596;-70
2022/04/16 11:18:42;;;;;;;3.22;1.90;;;;;;;14.02;44.68;103536.22;5004451;28;20029;-70
2022/04/16 11:21:09;;;;;;;4.03;1.98;;;;;;;14.59;44.88;103529.59;5024489;28;20041;-70
2022/04/16 11:23:46;;;;;;;2.40;1.50;;;;;;;14.61;43.31;103532.97;5023675;28;20025;-70
2022/04/16 11:34:28;;;;;;;4.30;1.48;;;;;;;14.96;41.25;103521.56;5017705;28;20056;-70
2022/04/16 11:36:54;;;;;;;3.45;1.80;;;;;;;14.88;41.97;103530.13;5026740;28;20108;-71